sensor_id;sensor_type;location;lat;lon;timestamp;pressure;altitude;pressure_sealevel;temperature;humidity
76726;BME280;65651;53.154;17.916;2023-04-08T00:00:23;101527.02;;;6.58;84.86
76726;BME280;65651;53.154;17.916;2023-04-08T00:03:10;101528.85;;;6.60;85.03
76726;BME280;65651;53.154;17.916;2023-04-08T00:05:38;101529.48;;;6.61;84.87
76726;BME280;65651;53.154;17.916;2023-04-08T00:08:06;101527.66;;;6.62;85.04
76726;BME280;65651;53.154;17.916;2023-04-08T00:10:34;101529.75;;;6.60;84.96
76726;BME280;65651;53.154;17.916;2023-04-08T00:13:02;101532.23;;;6.58;85.10
76726;BME280;65651;53.154;17.916;2023-04-08T00:15:30;101536.59;;;6.56;85.00
76726;BME280;65651;53.154;17.916;2023-04-08T00:18:00;101535.35;;;6.53;85.04
76726;BME280;65651;53.154;17.916;2023-04-08T00:20:28;101536.91;;;6.51;85.13
76726;BME280;65651;53.154;17.916;2023-04-08T00:22:55;101541.69;;;6.49;84.91
76726;BME280;65651;53.154;17.916;2023-04-08T00:25:22;101541.96;;;6.48;85.15
76726;BME280;65651;53.154;17.916;2023-04-08T00:27:53;101548.79;;;6.47;85.28
76726;BME280;65651;53.154;17.916;2023-04-08T00:30:20;101544.74;;;6.46;85.04
76726;BME280;65651;53.154;17.916;2023-04-08T00:32:47;101551.11;;;6.44;84.91
76726;BME280;65651;53.154;17.916;2023-04-08T00:35:14;101551.73;;;6.42;85.43
76726;BME280;65651;53.154;17.916;2023-04-08T00:37:42;101553.81;;;6.40;85.01
76726;BME280;65651;53.154;17.916;2023-04-08T00:40:09;101557.52;;;6.38;84.76
76726;BME280;65651;53.154;17.916;2023-04-08T00:42:37;101556.32;;;6.35;85.05
76726;BME280;65651;53.154;17.916;2023-04-08T00:45:05;101558.46;;;6.35;85.23
76726;BME280;65651;53.154;17.916;2023-04-08T00:47:35;101561.39;;;6.33;85.20
76726;BME280;65651;53.154;17.916;2023-04-08T00:50:03;101560.96;;;6.32;85.06
76726;BME280;65651;53.154;17.916;2023-04-08T00:52:30;101565.71;;;6.30;85.20
76726;BME280;65651;53.154;17.916;2023-04-08T00:54:57;101568.17;;;6.31;85.39
76726;BME280;65651;53.154;17.916;2023-04-08T00:57:25;101569.40;;;6.31;85.47
76726;BME280;65651;53.154;17.916;2023-04-08T00:59:52;101572.11;;;6.28;85.49
76726;BME280;65651;53.154;17.916;2023-04-08T01:02:35;101573.56;;;6.24;85.32
76726;BME280;65651;53.154;17.916;2023-04-08T01:05:08;101569.38;;;6.20;85.27
76726;BME280;65651;53.154;17.916;2023-04-08T01:07:48;101575.77;;;6.17;85.22
76726;BME280;65651;53.154;17.916;2023-04-08T01:10:28;101576.13;;;6.14;85.54
76726;BME280;65651;53.154;17.916;2023-04-08T01:12:58;101581.21;;;6.10;85.47
76726;BME280;65651;53.154;17.916;2023-04-08T01:15:33;101581.22;;;6.07;85.41
76726;BME280;65651;53.154;17.916;2023-04-08T01:18:05;101584.94;;;6.04;85.39
76726;BME280;65651;53.154;17.916;2023-04-08T01:20:33;101580.67;;;6.01;85.51
76726;BME280;65651;53.154;17.916;2023-04-08T01:25:52;101588.46;;;5.96;85.51
76726;BME280;65651;53.154;17.916;2023-04-08T01:28:21;101591.12;;;5.93;85.45
76726;BME280;65651;53.154;17.916;2023-04-08T01:30:51;101592.83;;;5.92;85.42
76726;BME280;65651;53.154;17.916;2023-04-08T01:33:22;101594.02;;;5.89;85.18
76726;BME280;65651;53.154;17.916;2023-04-08T01:35:54;101591.05;;;5.85;85.43
76726;BME280;65651;53.154;17.916;2023-04-08T01:38:24;101590.91;;;5.79;85.46
76726;BME280;65651;53.154;17.916;2023-04-08T01:40:56;101595.71;;;5.76;85.39
76726;BME280;65651;53.154;17.916;2023-04-08T01:43:24;101598.25;;;5.72;85.46
76726;BME280;65651;53.154;17.916;2023-04-08T01:45:53;101596.21;;;5.67;85.49
76726;BME280;65651;53.154;17.916;2023-04-08T01:48:24;101595.40;;;5.60;85.20
76726;BME280;65651;53.154;17.916;2023-04-08T01:50:54;101598.42;;;5.54;85.34
76726;BME280;65651;53.154;17.916;2023-04-08T01:53:24;101598.12;;;5.50;85.46
76726;BME280;65651;53.154;17.916;2023-04-08T01:56:05;101603.33;;;5.46;85.57
76726;BME280;65651;53.154;17.916;2023-04-08T01:58:41;101607.42;;;5.43;85.37
76726;BME280;65651;53.154;17.916;2023-04-08T02:01:11;101607.55;;;5.38;85.58
76726;BME280;65651;53.154;17.916;2023-04-08T02:03:42;101610.30;;;5.33;85.40
76726;BME280;65651;53.154;17.916;2023-04-08T02:06:10;101613.44;;;5.28;85.43
76726;BME280;65651;53.154;17.916;2023-04-08T02:08:37;101625.90;;;5.22;85.00
76726;BME280;65651;53.154;17.916;2023-04-08T02:11:04;101624.05;;;5.17;85.10
76726;BME280;65651;53.154;17.916;2023-04-08T02:13:32;101626.19;;;5.14;85.26
76726;BME280;65651;53.154;17.916;2023-04-08T02:16:05;101628.20;;;5.10;85.46
76726;BME280;65651;53.154;17.916;2023-04-08T02:18:38;101625.86;;;5.07;85.32
76726;BME280;65651;53.154;17.916;2023-04-08T02:21:16;101627.16;;;5.03;85.46
76726;BME280;65651;53.154;17.916;2023-04-08T02:23:48;101629.53;;;4.98;85.44
76726;BME280;65651;53.154;17.916;2023-04-08T02:26:17;101633.05;;;4.96;85.52
76726;BME280;65651;53.154;17.916;2023-04-08T02:28:48;101632.79;;;4.91;85.46
76726;BME280;65651;53.154;17.916;2023-04-08T02:31:16;101631.23;;;4.84;85.67
76726;BME280;65651;53.154;17.916;2023-04-08T02:33:45;101641.06;;;4.79;85.44
76726;BME280;65651;53.154;17.916;2023-04-08T02:36:14;101639.97;;;4.74;85.43
76726;BME280;65651;53.154;17.916;2023-04-08T02:38:47;101641.55;;;4.67;85.37
76726;BME280;65651;53.154;17.916;2023-04-08T02:41:16;101644.91;;;4.61;85.57
76726;BME280;65651;53.154;17.916;2023-04-08T02:43:44;101640.48;;;4.57;85.77
76726;BME280;65651;53.154;17.916;2023-04-08T02:46:12;101645.67;;;4.53;85.78
76726;BME280;65651;53.154;17.916;2023-04-08T02:48:39;101649.17;;;4.48;85.40
76726;BME280;65651;53.154;17.916;2023-04-08T02:51:06;101651.23;;;4.43;85.57
76726;BME280;65651;53.154;17.916;2023-04-08T02:53:34;101652.73;;;4.38;85.51
76726;BME280;65651;53.154;17.916;2023-04-08T02:56:02;101652.42;;;4.33;85.71
76726;BME280;65651;53.154;17.916;2023-04-08T02:58:29;101654.92;;;4.26;85.62
76726;BME280;65651;53.154;17.916;2023-04-08T03:00:56;101660.74;;;4.20;85.39
76726;BME280;65651;53.154;17.916;2023-04-08T03:03:24;101665.75;;;4.16;85.53
76726;BME280;65651;53.154;17.916;2023-04-08T03:05:55;101667.02;;;4.13;85.39
76726;BME280;65651;53.154;17.916;2023-04-08T03:08:23;101670.04;;;4.09;85.68
76726;BME280;65651;53.154;17.916;2023-04-08T03:10:50;101671.55;;;4.00;85.45
76726;BME280;65651;53.154;17.916;2023-04-08T03:13:19;101672.96;;;3.93;85.33
76726;BME280;65651;53.154;17.916;2023-04-08T03:15:46;101678.30;;;3.90;85.46
76726;BME280;65651;53.154;17.916;2023-04-08T03:18:13;101674.86;;;3.84;85.42
76726;BME280;65651;53.154;17.916;2023-04-08T03:20:41;101674.47;;;3.78;85.65
76726;BME280;65651;53.154;17.916;2023-04-08T03:23:09;101675.50;;;3.75;85.43
76726;BME280;65651;53.154;17.916;2023-04-08T03:25:37;101676.46;;;3.73;85.54
76726;BME280;65651;53.154;17.916;2023-04-08T03:28:04;101673.98;;;3.70;85.66
76726;BME280;65651;53.154;17.916;2023-04-08T03:30:31;101671.52;;;3.66;85.68
76726;BME280;65651;53.154;17.916;2023-04-08T03:32:58;101673.84;;;3.62;85.50
76726;BME280;65651;53.154;17.916;2023-04-08T03:35:26;101677.90;;;3.55;85.59
76726;BME280;65651;53.154;17.916;2023-04-08T03:37:54;101679.88;;;3.47;85.50
76726;BME280;65651;53.154;17.916;2023-04-08T03:40:21;101680.88;;;3.41;85.50
76726;BME280;65651;53.154;17.916;2023-04-08T03:42:49;101682.55;;;3.36;85.62
76726;BME280;65651;53.154;17.916;2023-04-08T03:45:16;101685.21;;;3.29;85.55
76726;BME280;65651;53.154;17.916;2023-04-08T03:47:43;101691.27;;;3.24;85.58
76726;BME280;65651;53.154;17.916;2023-04-08T03:50:16;101691.75;;;3.21;85.43
76726;BME280;65651;53.154;17.916;2023-04-08T03:52:43;101694.48;;;3.16;85.66
76726;BME280;65651;53.154;17.916;2023-04-08T03:55:11;101696.48;;;3.11;85.55
76726;BME280;65651;53.154;17.916;2023-04-08T03:57:38;101699.73;;;3.10;85.54
76726;BME280;65651;53.154;17.916;2023-04-08T04:00:06;101705.09;;;3.10;85.65
76726;BME280;65651;53.154;17.916;2023-04-08T04:02:39;101706.25;;;3.07;85.52
76726;BME280;65651;53.154;17.916;2023-04-08T04:05:07;101705.54;;;3.08;85.68
76726;BME280;65651;53.154;17.916;2023-04-08T04:07:34;101703.79;;;3.07;85.55
76726;BME280;65651;53.154;17.916;2023-04-08T04:10:02;101704.92;;;3.05;85.65
76726;BME280;65651;53.154;17.916;2023-04-08T04:12:29;101704.00;;;3.02;85.62
76726;BME280;65651;53.154;17.916;2023-04-08T04:14:56;101707.75;;;2.98;85.46
76726;BME280;65651;53.154;17.916;2023-04-08T04:17:24;101711.30;;;2.94;85.53
76726;BME280;65651;53.154;17.916;2023-04-08T04:19:51;101712.88;;;2.90;85.67
76726;BME280;65651;53.154;17.916;2023-04-08T04:22:19;101717.14;;;2.86;85.61
76726;BME280;65651;53.154;17.916;2023-04-08T04:24:47;101719.55;;;2.84;85.61
76726;BME280;65651;53.154;17.916;2023-04-08T04:27:15;101721.67;;;2.84;85.59
76726;BME280;65651;53.154;17.916;2023-04-08T04:29:45;101727.55;;;2.87;85.70
76726;BME280;65651;53.154;17.916;2023-04-08T04:32:12;101728.44;;;2.91;85.66
76726;BME280;65651;53.154;17.916;2023-04-08T04:34:39;101727.89;;;2.96;85.50
76726;BME280;65651;53.154;17.916;2023-04-08T04:37:07;101729.44;;;3.01;85.60
76726;BME280;65651;53.154;17.916;2023-04-08T04:39:34;101732.02;;;3.06;85.87
76726;BME280;65651;53.154;17.916;2023-04-08T04:42:02;101737.45;;;3.12;85.83
76726;BME280;65651;53.154;17.916;2023-04-08T04:44:29;101739.08;;;3.18;85.83
76726;BME280;65651;53.154;17.916;2023-04-08T04:46:57;101737.94;;;3.24;85.74
76726;BME280;65651;53.154;17.916;2023-04-08T04:49:24;101746.95;;;3.32;85.59
76726;BME280;65651;53.154;17.916;2023-04-08T04:51:51;101745.20;;;3.43;85.51
76726;BME280;65651;53.154;17.916;2023-04-08T04:54:19;101746.69;;;3.57;85.41
76726;BME280;65651;53.154;17.916;2023-04-08T04:56:49;101749.29;;;3.73;85.35
76726;BME280;65651;53.154;17.916;2023-04-08T04:59:16;101752.66;;;4.37;85.15
76726;BME280;65651;53.154;17.916;2023-04-08T05:01:43;101754.94;;;5.67;84.34
76726;BME280;65651;53.154;17.916;2023-04-08T05:04:14;101752.48;;;6.99;83.81
76726;BME280;65651;53.154;17.916;2023-04-08T05:06:42;101747.84;;;8.23;83.08
76726;BME280;65651;53.154;17.916;2023-04-08T05:09:09;101755.80;;;9.50;82.47
76726;BME280;65651;53.154;17.916;2023-04-08T05:11:36;101750.10;;;10.58;81.68
76726;BME280;65651;53.154;17.916;2023-04-08T05:14:03;101749.79;;;11.46;80.59
76726;BME280;65651;53.154;17.916;2023-04-08T05:16:31;101747.98;;;12.44;80.08
76726;BME280;65651;53.154;17.916;2023-04-08T05:18:58;101750.98;;;13.44;79.10
76726;BME280;65651;53.154;17.916;2023-04-08T05:21:26;101753.25;;;14.19;77.79
76726;BME280;65651;53.154;17.916;2023-04-08T05:23:53;101750.46;;;14.95;77.08
76726;BME280;65651;53.154;17.916;2023-04-08T05:26:21;101755.27;;;15.77;76.30
76726;BME280;65651;53.154;17.916;2023-04-08T05:28:49;101755.48;;;16.76;75.52
76726;BME280;65651;53.154;17.916;2023-04-08T05:31:18;101760.08;;;17.77;74.49
76726;BME280;65651;53.154;17.916;2023-04-08T05:33:47;101757.42;;;18.70;73.42
76726;BME280;65651;53.154;17.916;2023-04-08T05:36:14;101759.89;;;19.58;72.24
76726;BME280;65651;53.154;17.916;2023-04-08T05:38:41;101762.41;;;20.42;70.92
76726;BME280;65651;53.154;17.916;2023-04-08T05:41:10;101755.48;;;21.07;69.56
76726;BME280;65651;53.154;17.916;2023-04-08T05:43:37;101761.56;;;21.66;68.47
76726;BME280;65651;53.154;17.916;2023-04-08T05:46:08;101763.45;;;22.24;67.16
76726;BME280;65651;53.154;17.916;2023-04-08T05:48:36;101759.59;;;22.92;65.74
76726;BME280;65651;53.154;17.916;2023-04-08T05:51:03;101757.64;;;23.40;63.78
76726;BME280;65651;53.154;17.916;2023-04-08T05:53:31;101758.53;;;23.87;62.67
76726;BME280;65651;53.154;17.916;2023-04-08T05:55:58;101757.92;;;24.20;60.73
76726;BME280;65651;53.154;17.916;2023-04-08T05:58:25;101764.20;;;24.70;59.37
76726;BME280;65651;53.154;17.916;2023-04-08T06:00:53;101764.70;;;25.11;57.55
76726;BME280;65651;53.154;17.916;2023-04-08T06:03:21;101771.16;;;25.65;56.38
76726;BME280;65651;53.154;17.916;2023-04-08T06:05:50;101773.52;;;26.20;54.59
76726;BME280;65651;53.154;17.916;2023-04-08T06:08:18;101775.88;;;26.82;52.86
76726;BME280;65651;53.154;17.916;2023-04-08T06:10:51;101774.55;;;27.50;51.02
76726;BME280;65651;53.154;17.916;2023-04-08T06:13:19;101776.83;;;28.00;49.55
76726;BME280;65651;53.154;17.916;2023-04-08T06:15:47;101782.70;;;28.54;47.11
76726;BME280;65651;53.154;17.916;2023-04-08T06:18:18;101783.32;;;28.79;45.19
76726;BME280;65651;53.154;17.916;2023-04-08T06:20:45;101784.28;;;28.69;44.20
76726;BME280;65651;53.154;17.916;2023-04-08T06:23:15;101784.38;;;29.01;42.41
76726;BME280;65651;53.154;17.916;2023-04-08T06:25:43;101784.40;;;29.49;40.95
76726;BME280;65651;53.154;17.916;2023-04-08T06:28:10;101790.21;;;29.39;38.54
76726;BME280;65651;53.154;17.916;2023-04-08T06:30:37;101799.31;;;27.59;38.40
76726;BME280;65651;53.154;17.916;2023-04-08T06:33:05;101804.21;;;26.22;38.10
76726;BME280;65651;53.154;17.916;2023-04-08T06:35:35;101806.91;;;26.00;37.56
76726;BME280;65651;53.154;17.916;2023-04-08T06:38:03;101811.97;;;26.45;36.93
76726;BME280;65651;53.154;17.916;2023-04-08T06:40:31;101816.31;;;26.87;35.84
76726;BME280;65651;53.154;17.916;2023-04-08T06:42:58;101813.23;;;27.15;35.44
76726;BME280;65651;53.154;17.916;2023-04-08T06:45:34;101809.55;;;28.17;34.23
76726;BME280;65651;53.154;17.916;2023-04-08T06:48:01;101813.49;;;28.91;33.18
76726;BME280;65651;53.154;17.916;2023-04-08T06:50:29;101813.81;;;29.72;32.14
76726;BME280;65651;53.154;17.916;2023-04-08T06:52:56;101814.59;;;30.01;31.41
76726;BME280;65651;53.154;17.916;2023-04-08T06:55:23;101814.33;;;29.69;30.70
76726;BME280;65651;53.154;17.916;2023-04-08T06:57:51;101816.09;;;29.16;30.46
76726;BME280;65651;53.154;17.916;2023-04-08T07:00:18;101823.29;;;29.74;29.09
76726;BME280;65651;53.154;17.916;2023-04-08T07:02:45;101826.33;;;29.66;28.54
76726;BME280;65651;53.154;17.916;2023-04-08T07:05:13;101831.80;;;30.27;28.43
76726;BME280;65651;53.154;17.916;2023-04-08T07:07:40;101836.28;;;30.99;27.36
76726;BME280;65651;53.154;17.916;2023-04-08T07:10:08;101833.35;;;31.45;27.06
76726;BME280;65651;53.154;17.916;2023-04-08T07:12:35;101833.36;;;32.09;26.09
76726;BME280;65651;53.154;17.916;2023-04-08T07:15:03;101833.41;;;32.04;25.64
76726;BME280;65651;53.154;17.916;2023-04-08T07:17:30;101838.85;;;32.03;25.04
76726;BME280;65651;53.154;17.916;2023-04-08T07:19:58;101839.58;;;32.05;24.57
76726;BME280;65651;53.154;17.916;2023-04-08T07:22:25;101843.48;;;31.86;24.19
76726;BME280;65651;53.154;17.916;2023-04-08T07:24:53;101840.15;;;31.98;24.22
76726;BME280;65651;53.154;17.916;2023-04-08T07:27:20;101846.17;;;31.86;24.05
76726;BME280;65651;53.154;17.916;2023-04-08T07:29:51;101845.55;;;32.10;23.94
76726;BME280;65651;53.154;17.916;2023-04-08T07:32:20;101849.48;;;32.66;23.59
76726;BME280;65651;53.154;17.916;2023-04-08T07:34:48;101847.73;;;33.31;22.89
76726;BME280;65651;53.154;17.916;2023-04-08T07:37:15;101849.55;;;34.41;22.49
76726;BME280;65651;53.154;17.916;2023-04-08T07:39:44;101851.90;;;33.49;22.23
76726;BME280;65651;53.154;17.916;2023-04-08T07:42:11;101855.86;;;31.20;22.77
76726;BME280;65651;53.154;17.916;2023-04-08T07:44:38;101858.58;;;28.36;23.61
76726;BME280;65651;53.154;17.916;2023-04-08T07:47:05;101855.67;;;27.52;24.39
76726;BME280;65651;53.154;17.916;2023-04-08T07:49:34;101858.66;;;26.65;25.31
76726;BME280;65651;53.154;17.916;2023-04-08T07:52:02;101854.21;;;27.88;24.75
76726;BME280;65651;53.154;17.916;2023-04-08T07:54:33;101855.67;;;27.42;25.19
76726;BME280;65651;53.154;17.916;2023-04-08T07:57:00;101864.66;;;26.49;25.66
76726;BME280;65651;53.154;17.916;2023-04-08T07:59:28;101865.03;;;24.55;26.93
76726;BME280;65651;53.154;17.916;2023-04-08T08:01:55;101872.14;;;23.01;27.81
76726;BME280;65651;53.154;17.916;2023-04-08T08:04:22;101870.41;;;21.65;28.85
76726;BME280;65651;53.154;17.916;2023-04-08T08:06:52;101877.27;;;20.41;30.02
76726;BME280;65651;53.154;17.916;2023-04-08T08:09:19;101877.51;;;19.15;31.09
76726;BME280;65651;53.154;17.916;2023-04-08T08:11:46;101883.04;;;18.16;32.33
76726;BME280;65651;53.154;17.916;2023-04-08T08:14:14;101883.30;;;17.04;33.71
76726;BME280;65651;53.154;17.916;2023-04-08T08:16:41;101884.75;;;16.25;34.84
76726;BME280;65651;53.154;17.916;2023-04-08T08:19:09;101889.66;;;16.16;35.62
76726;BME280;65651;53.154;17.916;2023-04-08T08:21:36;101885.50;;;18.69;34.87
76726;BME280;65651;53.154;17.916;2023-04-08T08:24:04;101885.15;;;20.70;34.00
76726;BME280;65651;53.154;17.916;2023-04-08T08:26:35;101889.55;;;20.26;34.57
76726;BME280;65651;53.154;17.916;2023-04-08T08:29:08;101888.69;;;22.14;33.30
76726;BME280;65651;53.154;17.916;2023-04-08T08:31:35;101896.70;;;21.19;33.66
76726;BME280;65651;53.154;17.916;2023-04-08T08:34:03;101896.31;;;19.79;34.24
76726;BME280;65651;53.154;17.916;2023-04-08T08:36:30;101903.77;;;18.83;34.99
76726;BME280;65651;53.154;17.916;2023-04-08T08:38:57;101903.81;;;18.81;35.03
76726;BME280;65651;53.154;17.916;2023-04-08T08:41:25;101902.63;;;18.85;35.53
76726;BME280;65651;53.154;17.916;2023-04-08T08:43:52;101900.16;;;20.44;35.07
76726;BME280;65651;53.154;17.916;2023-04-08T08:46:20;101905.79;;;20.64;34.85
76726;BME280;65651;53.154;17.916;2023-04-08T08:48:47;101909.72;;;19.83;35.14
76726;BME280;65651;53.154;17.916;2023-04-08T08:51:15;101919.44;;;18.86;35.68
76726;BME280;65651;53.154;17.916;2023-04-08T08:53:42;101918.14;;;18.00;36.13
76726;BME280;65651;53.154;17.916;2023-04-08T08:56:11;101921.89;;;17.33;36.66
76726;BME280;65651;53.154;17.916;2023-04-08T08:58:38;101923.13;;;16.68;37.34
76726;BME280;65651;53.154;17.916;2023-04-08T09:04:13;101930.84;;;15.26;39.18
76726;BME280;65651;53.154;17.916;2023-04-08T09:06:43;101926.00;;;15.34;39.55
76726;BME280;65651;53.154;17.916;2023-04-08T09:09:12;101920.27;;;16.94;39.15
76726;BME280;65651;53.154;17.916;2023-04-08T09:11:45;101927.28;;;19.11;37.62
76726;BME280;65651;53.154;17.916;2023-04-08T09:14:24;101932.25;;;18.30;38.19
76726;BME280;65651;53.154;17.916;2023-04-08T09:16:52;101929.84;;;17.32;38.60
76726;BME280;65651;53.154;17.916;2023-04-08T09:19:19;101933.27;;;16.73;39.05
76726;BME280;65651;53.154;17.916;2023-04-08T09:22:06;101932.52;;;16.22;39.69
76726;BME280;65651;53.154;17.916;2023-04-08T09:24:35;101934.52;;;15.93;39.98
76726;BME280;65651;53.154;17.916;2023-04-08T09:27:03;101937.22;;;15.79;40.50
76726;BME280;65651;53.154;17.916;2023-04-08T09:29:31;101939.59;;;15.57;40.79
76726;BME280;65651;53.154;17.916;2023-04-08T09:32:00;101942.63;;;15.42;41.26
76726;BME280;65651;53.154;17.916;2023-04-08T09:34:28;101942.84;;;15.28;41.65
76726;BME280;65651;53.154;17.916;2023-04-08T09:36:58;101946.98;;;15.09;41.75
76726;BME280;65651;53.154;17.916;2023-04-08T09:39:25;101944.61;;;14.93;42.26
76726;BME280;65651;53.154;17.916;2023-04-08T09:41:55;101949.09;;;14.68;42.65
76726;BME280;65651;53.154;17.916;2023-04-08T09:44:25;101948.13;;;14.31;43.33
76726;BME280;65651;53.154;17.916;2023-04-08T09:47:00;101951.80;;;14.52;43.48
76726;BME280;65651;53.154;17.916;2023-04-08T09:52:07;101945.17;;;18.04;41.44
76726;BME280;65651;53.154;17.916;2023-04-08T09:57:13;101938.84;;;22.34;38.63
76726;BME280;65651;53.154;17.916;2023-04-08T09:59:48;101936.11;;;23.21;36.66
76726;BME280;65651;53.154;17.916;2023-04-08T10:02:24;101933.24;;;21.97;36.43
76726;BME280;65651;53.154;17.916;2023-04-08T10:04:58;101934.38;;;20.34;36.47
76726;BME280;65651;53.154;17.916;2023-04-08T10:07:26;101939.98;;;19.11;36.78
76726;BME280;65651;53.154;17.916;2023-04-08T10:09:53;101937.53;;;18.47;37.10
76726;BME280;65651;53.154;17.916;2023-04-08T10:12:21;101935.51;;;17.93;37.60
76726;BME280;65651;53.154;17.916;2023-04-08T10:23:04;101932.27;;;15.52;39.90
76726;BME280;65651;53.154;17.916;2023-04-08T10:25:41;101937.70;;;15.17;40.54
76726;BME280;65651;53.154;17.916;2023-04-08T10:30:46;101941.49;;;14.88;40.92
76726;BME280;65651;53.154;17.916;2023-04-08T10:33:16;101936.22;;;14.43;41.45
76726;BME280;65651;53.154;17.916;2023-04-08T10:35:48;101930.83;;;13.92;41.92
76726;BME280;65651;53.154;17.916;2023-04-08T10:38:17;101928.61;;;13.62;42.41
76726;BME280;65651;53.154;17.916;2023-04-08T10:40:46;101930.56;;;13.48;42.98
76726;BME280;65651;53.154;17.916;2023-04-08T10:43:14;101926.55;;;13.25;43.09
76726;BME280;65651;53.154;17.916;2023-04-08T10:45:42;101928.41;;;13.01;43.79
76726;BME280;65651;53.154;17.916;2023-04-08T10:48:14;101929.04;;;12.91;44.59
76726;BME280;65651;53.154;17.916;2023-04-08T10:50:43;101926.20;;;12.86;44.66
76726;BME280;65651;53.154;17.916;2023-04-08T10:53:11;101923.73;;;12.71;44.71
76726;BME280;65651;53.154;17.916;2023-04-08T10:55:38;101928.26;;;12.59;44.92
76726;BME280;65651;53.154;17.916;2023-04-08T10:58:06;101921.99;;;12.57;45.12
76726;BME280;65651;53.154;17.916;2023-04-08T11:00:38;101923.05;;;12.57;45.43
76726;BME280;65651;53.154;17.916;2023-04-08T11:03:08;101922.74;;;12.59;45.91
76726;BME280;65651;53.154;17.916;2023-04-08T11:05:38;101922.20;;;12.63;45.98
76726;BME280;65651;53.154;17.916;2023-04-08T11:08:05;101920.76;;;12.65;46.47
76726;BME280;65651;53.154;17.916;2023-04-08T11:10:37;101917.84;;;12.68;46.37
76726;BME280;65651;53.154;17.916;2023-04-08T11:13:06;101915.96;;;12.73;46.75
76726;BME280;65651;53.154;17.916;2023-04-08T11:15:35;101919.52;;;12.76;46.97
76726;BME280;65651;53.154;17.916;2023-04-08T11:18:04;101917.13;;;12.80;46.83
76726;BME280;65651;53.154;17.916;2023-04-08T11:20:32;101917.73;;;12.78;46.86
76726;BME280;65651;53.154;17.916;2023-04-08T11:23:03;101916.17;;;12.75;46.75
76726;BME280;65651;53.154;17.916;2023-04-08T11:25:30;101915.02;;;12.74;47.06
76726;BME280;65651;53.154;17.916;2023-04-08T11:27:58;101914.17;;;12.73;47.28
76726;BME280;65651;53.154;17.916;2023-04-08T11:30:26;101909.80;;;12.72;47.41
76726;BME280;65651;53.154;17.916;2023-04-08T11:32:55;101910.49;;;12.76;47.73
76726;BME280;65651;53.154;17.916;2023-04-08T11:35:23;101909.60;;;12.87;47.81
76726;BME280;65651;53.154;17.916;2023-04-08T11:37:54;101910.63;;;12.89;47.90
76726;BME280;65651;53.154;17.916;2023-04-08T11:40:22;101911.60;;;12.88;47.88
76726;BME280;65651;53.154;17.916;2023-04-08T11:42:51;101910.17;;;12.95;47.99
76726;BME280;65651;53.154;17.916;2023-04-08T11:45:20;101909.19;;;13.06;48.10
76726;BME280;65651;53.154;17.916;2023-04-08T11:47:47;101910.88;;;13.12;47.63
76726;BME280;65651;53.154;17.916;2023-04-08T11:50:25;101906.69;;;13.12;47.59
76726;BME280;65651;53.154;17.916;2023-04-08T11:52:52;101910.05;;;13.11;47.87
76726;BME280;65651;53.154;17.916;2023-04-08T11:55:24;101909.96;;;13.12;47.42
76726;BME280;65651;53.154;17.916;2023-04-08T11:57:53;101909.41;;;13.14;47.49
76726;BME280;65651;53.154;17.916;2023-04-08T12:00:22;101903.48;;;13.16;47.69
76726;BME280;65651;53.154;17.916;2023-04-08T12:02:50;101898.39;;;13.24;47.50
76726;BME280;65651;53.154;17.916;2023-04-08T12:05:19;101906.22;;;13.35;47.42
76726;BME280;65651;53.154;17.916;2023-04-08T12:07:47;101902.00;;;13.44;47.44
76726;BME280;65651;53.154;17.916;2023-04-08T12:10:15;101900.56;;;13.48;47.36
76726;BME280;65651;53.154;17.916;2023-04-08T12:12:43;101899.86;;;13.54;47.24
76726;BME280;65651;53.154;17.916;2023-04-08T12:15:10;101900.14;;;13.63;47.14
76726;BME280;65651;53.154;17.916;2023-04-08T12:17:38;101896.80;;;13.71;47.10
76726;BME280;65651;53.154;17.916;2023-04-08T12:20:05;101896.91;;;13.78;47.30
76726;BME280;65651;53.154;17.916;2023-04-08T12:22:39;101896.71;;;13.82;47.10
76726;BME280;65651;53.154;17.916;2023-04-08T12:25:07;101894.50;;;13.83;47.06
76726;BME280;65651;53.154;17.916;2023-04-08T12:27:34;101891.80;;;13.86;47.35
76726;BME280;65651;53.154;17.916;2023-04-08T12:30:02;101891.70;;;13.89;47.02
76726;BME280;65651;53.154;17.916;2023-04-08T12:32:29;101890.10;;;13.83;46.92
76726;BME280;65651;53.154;17.916;2023-04-08T12:34:57;101888.35;;;13.80;46.95
76726;BME280;65651;53.154;17.916;2023-04-08T12:37:25;101884.61;;;13.80;46.52
76726;BME280;65651;53.154;17.916;2023-04-08T12:39:55;101884.02;;;13.80;46.73
76726;BME280;65651;53.154;17.916;2023-04-08T12:42:22;101888.16;;;13.87;46.38
76726;BME280;65651;53.154;17.916;2023-04-08T12:44:50;101883.84;;;13.86;46.47
76726;BME280;65651;53.154;17.916;2023-04-08T12:47:17;101885.32;;;13.86;46.42
76726;BME280;65651;53.154;17.916;2023-04-08T12:49:45;101883.36;;;13.82;46.73
76726;BME280;65651;53.154;17.916;2023-04-08T12:52:12;101881.82;;;13.73;46.49
76726;BME280;65651;53.154;17.916;2023-04-08T12:54:39;101882.88;;;13.69;46.43
76726;BME280;65651;53.154;17.916;2023-04-08T12:57:07;101881.53;;;13.80;46.40
76726;BME280;65651;53.154;17.916;2023-04-08T12:59:34;101881.62;;;13.93;45.94
76726;BME280;65651;53.154;17.916;2023-04-08T13:02:04;101885.10;;;14.01;45.82
76726;BME280;65651;53.154;17.916;2023-04-08T13:04:36;101877.84;;;14.07;46.03
76726;BME280;65651;53.154;17.916;2023-04-08T13:07:06;101876.02;;;14.13;45.92
76726;BME280;65651;53.154;17.916;2023-04-08T13:09:33;101877.84;;;14.17;45.53
76726;BME280;65651;53.154;17.916;2023-04-08T13:12:01;101876.20;;;14.21;45.56